createdAt,value
2018-05-24T00:01:52.787Z,5.40
2018-05-24T00:04:20.225Z,5.23
2018-05-24T00:06:47.566Z,5.53
2018-05-24T00:09:15.023Z,5.40
2018-05-24T00:11:42.410Z,5.60
2018-05-24T00:14:09.750Z,5.40
2018-05-24T00:16:37.095Z,5.67
2018-05-24T00:19:04.569Z,5.20
2018-05-24T00:21:32.029Z,5.80
2018-05-24T00:23:59.395Z,5.20
2018-05-24T00:26:26.805Z,5.60
2018-05-24T00:28:54.152Z,5.20
2018-05-24T00:31:21.540Z,5.17
2018-05-24T00:33:49.270Z,5.40
2018-05-24T00:36:16.676Z,5.80
2018-05-24T00:38:44.088Z,6.07
2018-05-24T00:41:11.486Z,5.87
2018-05-24T00:43:38.912Z,6.20
2018-05-24T00:46:06.276Z,5.80
2018-05-24T00:48:33.701Z,6.20
2018-05-24T00:51:01.064Z,6.03
2018-05-24T00:53:28.453Z,6.07
2018-05-24T00:55:55.880Z,6.03
2018-05-24T00:58:23.267Z,5.70
2018-05-24T01:00:50.639Z,6.10
2018-05-24T01:03:18.058Z,6.07
2018-05-24T01:05:45.501Z,5.80
2018-05-24T01:08:12.897Z,5.90
2018-05-24T01:10:40.300Z,5.83
2018-05-24T01:13:07.717Z,5.90
2018-05-24T01:15:35.070Z,6.17
2018-05-24T01:18:02.488Z,6.00
2018-05-24T01:20:29.861Z,5.90
2018-05-24T01:22:57.276Z,6.43
2018-05-24T01:25:24.680Z,6.07
2018-05-24T01:27:52.113Z,6.53
2018-05-24T01:30:19.540Z,6.27
2018-05-24T01:32:46.889Z,6.50
2018-05-24T01:35:14.239Z,6.23
2018-05-24T01:37:47.419Z,6.10
2018-05-24T01:40:14.782Z,5.63
2018-05-24T01:42:42.779Z,5.77
2018-05-24T01:45:10.152Z,5.70
2018-05-24T01:47:37.606Z,6.23
2018-05-24T01:50:05.032Z,6.07
2018-05-24T01:52:32.524Z,6.40
2018-05-24T01:54:59.931Z,6.03
2018-05-24T01:57:27.337Z,6.40
2018-05-24T01:59:54.711Z,6.20
2018-05-24T02:02:22.120Z,5.87
2018-05-24T02:04:49.470Z,5.57
2018-05-24T02:07:16.835Z,6.03
2018-05-24T02:09:44.218Z,6.10
2018-05-24T02:12:11.698Z,6.20
2018-05-24T02:14:39.085Z,5.83
2018-05-24T02:17:06.491Z,6.23
2018-05-24T02:19:33.874Z,6.10
2018-05-24T02:22:01.264Z,6.20
2018-05-24T02:24:28.632Z,6.33
2018-05-24T02:26:55.974Z,5.87
2018-05-24T02:29:23.371Z,6.33
2018-05-24T02:31:50.720Z,5.80
2018-05-24T02:34:18.076Z,6.03
2018-05-24T02:36:45.460Z,6.20
2018-05-24T02:39:12.831Z,6.20
2018-05-24T02:41:40.219Z,6.47
2018-05-24T02:44:07.571Z,6.67
2018-05-24T02:46:34.936Z,5.93
2018-05-24T02:49:02.372Z,6.50
2018-05-24T02:51:29.761Z,6.20
2018-05-24T02:53:57.136Z,6.70
2018-05-24T02:56:24.500Z,6.23
2018-05-24T02:58:51.932Z,6.67
2018-05-24T03:01:19.326Z,6.30
2018-05-24T03:03:46.710Z,6.07
2018-05-24T03:06:14.186Z,6.33
2018-05-24T03:08:41.539Z,6.60
2018-05-24T03:11:09.025Z,6.40
2018-05-24T03:13:36.420Z,6.70
2018-05-24T03:16:03.803Z,5.80
2018-05-24T03:18:31.354Z,6.30
2018-05-24T03:20:58.857Z,6.77
2018-05-24T03:23:26.277Z,5.63
2018-05-24T03:25:53.633Z,6.47
2018-05-24T03:28:21.025Z,7.13
2018-05-24T03:30:48.460Z,6.70
2018-05-24T03:33:19.195Z,6.20
2018-05-24T03:35:46.560Z,6.03
2018-05-24T03:38:13.977Z,6.27
2018-05-24T03:40:41.363Z,5.87
2018-05-24T03:43:08.745Z,6.53
2018-05-24T03:45:36.159Z,6.37
2018-05-24T03:48:03.620Z,6.33
2018-05-24T03:50:31.046Z,6.37
2018-05-24T03:52:58.400Z,6.10
2018-05-24T03:55:25.807Z,6.13
2018-05-24T03:57:53.288Z,6.20
2018-05-24T04:00:26.468Z,6.33
2018-05-24T04:02:59.757Z,5.67
2018-05-24T04:05:27.597Z,5.90
2018-05-24T04:07:55.036Z,5.60
2018-05-24T04:10:22.509Z,5.47
2018-05-24T04:12:49.889Z,5.80
2018-05-24T04:15:17.274Z,5.73
2018-05-24T04:17:44.680Z,5.87
2018-05-24T04:20:12.059Z,5.67
2018-05-24T04:22:39.593Z,5.53
2018-05-24T04:25:07.020Z,5.90
2018-05-24T04:27:34.405Z,6.23
2018-05-24T04:30:01.752Z,5.47
2018-05-24T04:32:29.143Z,5.83
2018-05-24T04:34:56.508Z,5.80
2018-05-24T04:37:23.940Z,5.77
2018-05-24T04:39:51.302Z,5.70
2018-05-24T04:42:18.704Z,5.50
2018-05-24T04:44:46.071Z,6.40
2018-05-24T04:47:13.415Z,6.03
2018-05-24T04:49:40.801Z,5.83
2018-05-24T04:52:08.184Z,6.30
2018-05-24T04:54:35.603Z,5.63
2018-05-24T04:57:02.985Z,5.80
2018-05-24T04:59:30.366Z,5.30
2018-05-24T05:01:57.727Z,5.53
2018-05-24T05:04:25.141Z,5.20
2018-05-24T05:06:52.564Z,5.87
2018-05-24T05:09:19.994Z,5.33
2018-05-24T05:11:47.383Z,5.93
2018-05-24T05:14:14.812Z,5.57
2018-05-24T05:16:42.207Z,6.27
2018-05-24T05:19:10.694Z,5.30
2018-05-24T05:21:38.109Z,5.33
2018-05-24T05:24:05.500Z,6.10
2018-05-24T05:26:32.964Z,5.80
2018-05-24T05:29:00.318Z,6.17
2018-05-24T05:31:27.826Z,5.90
2018-05-24T05:33:55.233Z,5.67
2018-05-24T05:36:22.663Z,6.43
2018-05-24T05:38:50.093Z,6.27
2018-05-24T05:41:17.456Z,5.60
2018-05-24T05:43:44.862Z,6.40
2018-05-24T05:46:12.257Z,5.60
2018-05-24T05:48:39.614Z,5.50
2018-05-24T05:51:07.032Z,5.80
2018-05-24T05:53:34.428Z,5.70
2018-05-24T05:56:01.835Z,5.53
2018-05-24T05:58:29.178Z,6.00
2018-05-24T06:00:56.547Z,5.70
2018-05-24T06:03:23.966Z,5.87
2018-05-24T06:05:51.464Z,5.70
2018-05-24T06:08:18.829Z,6.00
2018-05-24T06:10:46.180Z,5.47
2018-05-24T06:13:13.595Z,5.80
2018-05-24T06:15:41.027Z,6.03
2018-05-24T06:18:08.374Z,5.53
2018-05-24T06:20:36.133Z,5.67
2018-05-24T06:23:03.516Z,5.63
2018-05-24T06:25:30.919Z,5.53
2018-05-24T06:27:58.403Z,5.57
2018-05-24T06:30:25.823Z,5.27
2018-05-24T06:32:53.248Z,6.63
2018-05-24T06:35:20.602Z,5.53
2018-05-24T06:37:47.953Z,6.00
2018-05-24T06:40:15.376Z,5.33
2018-05-24T06:42:42.755Z,6.00
2018-05-24T06:45:10.160Z,5.77
2018-05-24T06:47:37.545Z,5.60
2018-05-24T06:50:04.935Z,5.67
2018-05-24T06:52:32.296Z,5.37
2018-05-24T06:54:59.640Z,5.30
2018-05-24T06:57:27.069Z,6.60
2018-05-24T06:59:55.234Z,6.03
2018-05-24T07:02:22.621Z,6.40
2018-05-24T07:04:50.123Z,6.13
2018-05-24T07:07:17.466Z,6.03
2018-05-24T07:09:44.889Z,6.03
2018-05-24T07:12:12.304Z,6.70
2018-05-24T07:14:39.659Z,5.77
2018-05-24T07:17:07.042Z,6.00
2018-05-24T07:19:34.455Z,5.80
2018-05-24T07:22:01.873Z,6.30
2018-05-24T07:24:29.273Z,5.60
2018-05-24T07:26:56.636Z,6.03
2018-05-24T07:29:24.053Z,6.07
2018-05-24T07:31:51.453Z,6.00
2018-05-24T07:34:18.861Z,5.60
2018-05-24T07:36:46.212Z,6.00
2018-05-24T07:39:13.560Z,6.13
2018-05-24T07:41:40.995Z,5.53
2018-05-24T07:44:08.388Z,5.87
2018-05-24T07:46:35.791Z,5.80
2018-05-24T07:49:03.228Z,5.73
2018-05-24T07:51:30.603Z,5.60
2018-05-24T07:53:58.030Z,5.70
2018-05-24T07:56:25.415Z,6.10
2018-05-24T07:58:52.796Z,5.37
2018-05-24T08:01:20.162Z,5.60
2018-05-24T08:03:48.543Z,5.90
2018-05-24T08:06:15.996Z,5.93
2018-05-24T08:08:43.565Z,5.63
2018-05-24T08:11:10.930Z,6.07
2018-05-24T08:13:38.280Z,5.67
2018-05-24T08:16:05.794Z,5.90
2018-05-24T08:18:33.289Z,5.83
2018-05-24T08:21:00.676Z,5.70
2018-05-24T08:23:28.068Z,5.57
2018-05-24T08:25:55.492Z,6.20
2018-05-24T08:28:22.850Z,5.40
2018-05-24T08:30:50.256Z,5.70
2018-05-24T08:33:17.672Z,5.93
2018-05-24T08:35:45.142Z,6.23
2018-05-24T08:38:12.516Z,5.53
2018-05-24T08:40:39.930Z,5.57
2018-05-24T08:43:07.329Z,5.43
2018-05-24T08:45:34.756Z,6.27
2018-05-24T08:48:02.186Z,5.50
2018-05-24T08:50:29.580Z,5.73
2018-05-24T08:52:56.918Z,5.47
2018-05-24T08:55:24.299Z,5.80
2018-05-24T08:57:51.698Z,5.80
2018-05-24T09:00:19.103Z,5.73
2018-05-24T09:02:46.557Z,5.50
2018-05-24T09:05:13.945Z,6.03
2018-05-24T09:07:41.300Z,5.70
2018-05-24T09:10:08.704Z,5.80
2018-05-24T09:12:36.087Z,5.90
2018-05-24T09:15:03.509Z,5.57
2018-05-24T09:17:30.853Z,5.83
2018-05-24T09:19:58.227Z,5.63
2018-05-24T09:22:25.595Z,6.20
2018-05-24T09:24:52.978Z,5.70
2018-05-24T09:27:20.482Z,5.70
2018-05-24T09:29:47.823Z,6.00
2018-05-24T09:32:15.168Z,5.70
2018-05-24T09:34:42.572Z,5.97
2018-05-24T09:37:09.916Z,5.57
2018-05-24T09:39:37.298Z,5.67
2018-05-24T09:42:04.751Z,5.60
2018-05-24T09:44:32.055Z,6.00
2018-05-24T09:46:59.477Z,5.50
2018-05-24T09:49:26.896Z,5.57
2018-05-24T09:51:54.267Z,5.30
2018-05-24T09:54:21.673Z,5.30
2018-05-24T09:56:49.032Z,5.10
2018-05-24T09:59:16.450Z,5.50
2018-05-24T10:01:43.890Z,5.60
2018-05-24T10:04:11.272Z,5.30
2018-05-24T10:06:38.684Z,5.37
2018-05-24T10:09:06.125Z,4.90
2018-05-24T10:11:33.507Z,5.73
2018-05-24T10:14:00.849Z,5.53
2018-05-24T10:16:28.341Z,4.60
2018-05-24T10:18:55.753Z,5.13
2018-05-24T10:21:23.126Z,5.10
2018-05-24T10:23:50.553Z,4.80
2018-05-24T10:26:18.049Z,5.00
2018-05-24T10:28:45.396Z,5.07
2018-05-24T10:31:12.821Z,5.50
2018-05-24T10:33:40.194Z,4.93
2018-05-24T10:36:07.584Z,4.77
2018-05-24T10:38:35.026Z,5.60
2018-05-24T10:41:02.448Z,5.00
2018-05-24T10:43:29.841Z,4.70
2018-05-24T10:45:57.246Z,4.90
2018-05-24T10:48:24.631Z,4.53
2018-05-24T10:50:52.008Z,4.33
2018-05-24T10:53:19.352Z,4.17
2018-05-24T10:55:46.745Z,4.23
2018-05-24T10:58:14.578Z,5.10
2018-05-24T11:00:41.977Z,4.20
2018-05-24T11:03:09.510Z,4.50
2018-05-24T11:05:36.845Z,4.17
2018-05-24T11:08:04.240Z,4.10
2018-05-24T11:10:31.655Z,4.33
2018-05-24T11:12:59.036Z,4.37
2018-05-24T11:15:26.420Z,4.23
2018-05-24T11:17:53.817Z,4.00
2018-05-24T11:20:21.197Z,4.50
2018-05-24T11:22:48.549Z,3.90
2018-05-24T11:25:16.064Z,4.47
2018-05-24T11:27:43.364Z,4.67
2018-05-24T11:30:10.712Z,4.07
2018-05-24T11:32:38.192Z,4.50
2018-05-24T11:35:05.539Z,4.00
2018-05-24T11:37:32.912Z,4.13
2018-05-24T11:40:00.319Z,3.40
2018-05-24T11:42:27.708Z,4.37
2018-05-24T11:44:55.132Z,4.00
2018-05-24T11:47:22.479Z,4.23
2018-05-24T11:49:50.165Z,3.67
2018-05-24T11:52:17.545Z,3.40
2018-05-24T11:54:44.951Z,3.97
2018-05-24T11:57:12.350Z,3.50
2018-05-24T11:59:39.724Z,3.43
2018-05-24T12:02:07.107Z,3.50
2018-05-24T12:04:34.702Z,3.50
2018-05-24T12:07:02.154Z,3.70
2018-05-24T12:09:29.487Z,3.23
2018-05-24T12:11:56.893Z,3.50
2018-05-24T12:14:24.231Z,3.23
2018-05-24T12:16:51.669Z,3.23
2018-05-24T12:19:19.064Z,3.30
2018-05-24T12:21:46.599Z,3.40
2018-05-24T12:24:13.963Z,3.33
2018-05-24T12:26:41.354Z,3.60
2018-05-24T12:29:08.753Z,3.40
2018-05-24T12:31:36.132Z,3.10
2018-05-24T12:34:03.541Z,3.20
2018-05-24T12:36:30.910Z,3.00
2018-05-24T12:38:58.305Z,3.10
2018-05-24T12:41:25.721Z,3.27
2018-05-24T12:43:53.147Z,3.07
2018-05-24T12:46:20.539Z,3.03
2018-05-24T12:48:47.915Z,3.03
2018-05-24T12:51:15.304Z,2.80
2018-05-24T12:53:42.706Z,3.00
2018-05-24T12:56:10.125Z,2.80
2018-05-24T12:58:37.477Z,3.20
2018-05-24T13:01:05.688Z,2.70
2018-05-24T13:03:33.081Z,3.00
2018-05-24T13:06:00.505Z,2.80
2018-05-24T13:08:27.880Z,2.85
2018-05-24T13:10:55.259Z,3.00
2018-05-24T13:13:22.608Z,2.78
2018-05-24T13:15:49.987Z,2.80
2018-05-24T13:18:17.380Z,2.70
2018-05-24T13:20:44.757Z,2.90
2018-05-24T13:23:12.574Z,2.65
2018-05-24T13:25:39.952Z,2.67
2018-05-24T13:28:07.378Z,2.70
2018-05-24T13:30:34.796Z,2.95
2018-05-24T13:33:02.230Z,3.10
2018-05-24T13:35:29.705Z,2.90
2018-05-24T13:37:57.084Z,2.75
2018-05-24T13:40:24.549Z,2.75
2018-05-24T13:42:51.923Z,3.17
2018-05-24T13:45:19.342Z,2.67
2018-05-24T13:47:46.741Z,2.60
2018-05-24T13:50:14.096Z,2.60
2018-05-24T13:52:41.468Z,2.85
2018-05-24T13:55:08.888Z,2.62
2018-05-24T13:57:42.268Z,2.78
2018-05-24T14:00:09.676Z,2.92
2018-05-24T14:02:37.064Z,3.25
2018-05-24T14:05:04.464Z,2.80
2018-05-24T14:07:31.949Z,3.15
2018-05-24T14:09:59.482Z,2.65
2018-05-24T14:12:26.884Z,3.20
2018-05-24T14:14:54.223Z,2.92
2018-05-24T14:17:21.692Z,2.95
2018-05-24T14:19:49.047Z,3.00
2018-05-24T14:22:16.561Z,2.70
2018-05-24T14:24:43.979Z,3.03
2018-05-24T14:27:11.363Z,3.20
2018-05-24T14:29:38.856Z,2.97
2018-05-24T14:32:06.238Z,3.00
2018-05-24T14:34:33.773Z,2.70
2018-05-24T14:37:01.204Z,3.00
2018-05-24T14:39:28.583Z,3.00
2018-05-24T14:41:55.996Z,3.00
2018-05-24T14:44:23.399Z,2.80
2018-05-24T14:46:50.801Z,2.90
2018-05-24T14:49:18.198Z,2.95
2018-05-24T14:51:45.620Z,3.12
2018-05-24T14:54:13.004Z,3.40
2018-05-24T14:56:40.476Z,3.00
2018-05-24T14:59:07.905Z,3.60
2018-05-24T15:01:35.260Z,3.58
2018-05-24T15:04:02.744Z,3.20
2018-05-24T15:06:30.115Z,2.97
2018-05-24T15:08:57.513Z,3.30
2018-05-24T15:11:24.888Z,2.90
2018-05-24T15:13:52.308Z,3.00
2018-05-24T15:16:19.908Z,3.10
2018-05-24T15:18:47.340Z,3.27
2018-05-24T15:21:14.727Z,3.20
2018-05-24T15:23:42.143Z,3.20
2018-05-24T15:26:09.555Z,3.27
2018-05-24T15:28:36.930Z,3.00
2018-05-24T15:31:04.371Z,3.00
2018-05-24T15:33:31.781Z,3.40
2018-05-24T15:35:59.173Z,3.15
2018-05-24T15:38:26.509Z,3.08
2018-05-24T15:40:53.903Z,3.20
2018-05-24T15:43:21.282Z,3.17
2018-05-24T15:45:48.695Z,3.08
2018-05-24T15:48:16.052Z,3.30
2018-05-24T15:50:43.512Z,3.12
2018-05-24T15:53:10.890Z,3.10
2018-05-24T15:55:38.268Z,3.17
2018-05-24T15:58:06.262Z,2.80
2018-05-24T16:00:33.619Z,2.97
2018-05-24T16:03:01.020Z,2.97
2018-05-24T16:05:28.382Z,3.12
2018-05-24T16:07:55.760Z,2.92
2018-05-24T16:10:23.146Z,3.40
2018-05-24T16:12:50.517Z,4.10
2018-05-24T16:15:17.928Z,3.70
2018-05-24T16:17:45.274Z,3.30
2018-05-24T16:20:12.648Z,2.90
2018-05-24T16:22:40.024Z,3.20
2018-05-24T16:25:07.441Z,3.45
2018-05-24T16:27:34.864Z,3.33
2018-05-24T16:30:02.283Z,3.30
2018-05-24T16:32:29.718Z,3.97
2018-05-24T16:34:57.074Z,2.80
2018-05-24T16:37:24.413Z,3.10
2018-05-24T16:39:51.972Z,2.97
2018-05-24T16:42:19.338Z,3.17
2018-05-24T16:44:46.852Z,2.97
2018-05-24T16:47:14.278Z,3.00
2018-05-24T16:49:41.632Z,3.37
2018-05-24T16:52:09.085Z,3.15
2018-05-24T16:54:36.651Z,3.10
2018-05-24T16:57:04.010Z,3.10
2018-05-24T16:59:31.422Z,3.17
2018-05-24T17:01:58.818Z,3.97
2018-05-24T17:04:26.194Z,3.30
2018-05-24T17:06:53.560Z,3.70
2018-05-24T17:09:20.977Z,3.75
2018-05-24T17:11:48.467Z,3.65
2018-05-24T17:14:15.814Z,3.70
2018-05-24T17:16:43.229Z,3.80
2018-05-24T17:19:10.637Z,3.40
2018-05-24T17:21:38.061Z,4.12
2018-05-24T17:24:05.447Z,3.65
2018-05-24T17:26:32.851Z,3.90
2018-05-24T17:29:00.246Z,4.15
2018-05-24T17:31:27.695Z,3.58
2018-05-24T17:33:55.420Z,3.80
2018-05-24T17:36:22.820Z,3.42
2018-05-24T17:38:50.608Z,3.75
2018-05-24T17:41:17.951Z,3.80
2018-05-24T17:43:45.378Z,3.75
2018-05-24T17:46:12.841Z,3.30
2018-05-24T17:48:40.297Z,3.90
2018-05-24T17:51:07.652Z,3.50
2018-05-24T17:53:35.060Z,3.70
2018-05-24T17:56:02.438Z,3.50
2018-05-24T17:58:29.832Z,3.40
2018-05-24T18:00:57.418Z,4.00
2018-05-24T18:03:24.795Z,3.60
2018-05-24T18:05:52.316Z,3.73
2018-05-24T18:08:19.693Z,4.13
2018-05-24T18:10:47.076Z,4.17
2018-05-24T18:13:14.424Z,3.80
2018-05-24T18:15:41.886Z,4.23
2018-05-24T18:18:09.608Z,4.07
2018-05-24T18:20:36.983Z,4.20
2018-05-24T18:23:04.331Z,3.80
2018-05-24T18:25:31.716Z,4.20
2018-05-24T18:27:59.119Z,4.60
2018-05-24T18:30:26.459Z,4.13
2018-05-24T18:32:53.898Z,5.47
2018-05-24T18:35:21.305Z,4.20
2018-05-24T18:37:48.684Z,4.30
2018-05-24T18:40:16.065Z,4.50
2018-05-24T18:42:43.547Z,4.33
2018-05-24T18:45:10.973Z,4.50
2018-05-24T18:47:38.401Z,4.60
2018-05-24T18:50:05.785Z,4.50
2018-05-24T18:52:33.436Z,4.60
2018-05-24T18:55:00.844Z,4.23
2018-05-24T18:57:28.247Z,4.57
2018-05-24T18:59:55.634Z,5.00
2018-05-24T19:02:23.215Z,4.53
2018-05-24T19:04:50.644Z,4.73
2018-05-24T19:07:18.044Z,5.03
2018-05-24T19:09:45.441Z,4.80
2018-05-24T19:12:12.828Z,5.20
2018-05-24T19:14:40.223Z,5.67
2018-05-24T19:17:07.657Z,4.70
2018-05-24T19:19:35.104Z,4.70
2018-05-24T19:22:02.531Z,5.27
2018-05-24T19:24:29.874Z,5.17
2018-05-24T19:26:57.354Z,5.47
2018-05-24T19:29:24.942Z,5.30
2018-05-24T19:31:52.299Z,5.33
2018-05-24T19:34:19.674Z,5.30
2018-05-24T19:36:47.085Z,5.10
2018-05-24T19:39:14.431Z,5.37
2018-05-24T19:41:41.924Z,5.20
2018-05-24T19:44:09.289Z,5.30
2018-05-24T19:46:36.701Z,5.27
2018-05-24T19:49:04.055Z,5.70
2018-05-24T19:51:31.415Z,4.70
2018-05-24T19:53:58.807Z,5.23
2018-05-24T19:56:26.182Z,5.70
2018-05-24T19:58:53.578Z,5.37
2018-05-24T20:01:20.939Z,5.13
2018-05-24T20:03:48.313Z,5.03
2018-05-24T20:06:16.347Z,5.17
2018-05-24T20:08:44.430Z,5.60
2018-05-24T20:11:12.301Z,5.00
2018-05-24T20:13:40.164Z,5.50
2018-05-24T20:16:09.056Z,5.70
2018-05-24T20:18:37.025Z,5.73
2018-05-24T20:21:05.096Z,5.40
2018-05-24T20:23:33.882Z,4.93
2018-05-24T20:26:01.854Z,5.37
2018-05-24T20:28:29.722Z,5.70
2018-05-24T20:30:57.584Z,5.90
2018-05-24T20:33:25.558Z,5.20
2018-05-24T20:35:53.419Z,5.37
2018-05-24T20:38:21.268Z,5.67
2018-05-24T20:40:49.261Z,5.83
2018-05-24T20:43:17.229Z,5.80
2018-05-24T20:45:45.298Z,5.87
2018-05-24T20:48:13.164Z,5.70
2018-05-24T20:50:41.032Z,6.20
2018-05-24T20:53:09.722Z,5.67
2018-05-24T20:55:37.685Z,5.57
2018-05-24T20:58:05.550Z,5.87
2018-05-24T21:00:33.396Z,5.77
2018-05-24T21:03:01.186Z,5.67
2018-05-24T21:05:29.050Z,5.60
2018-05-24T21:07:57.019Z,5.40
2018-05-24T21:10:24.864Z,5.63
2018-05-24T21:12:52.752Z,5.97
2018-05-24T21:15:20.720Z,6.20
2018-05-24T21:17:48.555Z,6.30
2018-05-24T21:20:16.601Z,6.47
2018-05-24T21:22:44.528Z,6.00
2018-05-24T21:25:12.372Z,6.03
2018-05-24T21:27:40.266Z,6.80
2018-05-24T21:30:08.025Z,6.10
2018-05-24T21:32:35.891Z,5.93
2018-05-24T21:35:03.657Z,6.60
2018-05-24T21:37:31.420Z,5.80
2018-05-24T21:39:59.080Z,5.77
2018-05-24T21:42:26.520Z,6.27
2018-05-24T21:44:53.901Z,6.33
2018-05-24T21:47:21.285Z,5.67
2018-05-24T21:49:48.741Z,6.53
2018-05-24T21:52:16.192Z,6.60
2018-05-24T21:54:43.580Z,6.20
2018-05-24T21:57:11.009Z,6.40
2018-05-24T21:59:38.394Z,5.97
2018-05-24T22:02:05.839Z,6.40
2018-05-24T22:04:33.219Z,6.20
2018-05-24T22:07:00.630Z,6.23
2018-05-24T22:09:28.040Z,5.53
2018-05-24T22:11:55.420Z,6.53
2018-05-24T22:14:22.840Z,6.63
2018-05-24T22:16:50.252Z,6.43
2018-05-24T22:19:17.708Z,6.70
2018-05-24T22:21:45.240Z,6.67
2018-05-24T22:24:12.631Z,6.70
2018-05-24T22:26:40.053Z,6.60
2018-05-24T22:29:07.433Z,6.83
2018-05-24T22:31:34.868Z,6.33
2018-05-24T22:34:02.253Z,7.20
2018-05-24T22:36:29.628Z,7.13
2018-05-24T22:38:57.058Z,6.70
2018-05-24T22:41:24.408Z,6.63
2018-05-24T22:43:51.817Z,7.10
2018-05-24T22:46:19.201Z,7.53
2018-05-24T22:48:46.584Z,6.97
2018-05-24T22:51:13.971Z,6.60
2018-05-24T22:53:41.355Z,7.13
2018-05-24T22:56:08.737Z,6.37
2018-05-24T22:58:36.144Z,7.03
2018-05-24T23:01:03.527Z,6.90
2018-05-24T23:03:30.883Z,7.40
2018-05-24T23:05:58.275Z,6.77
2018-05-24T23:08:25.644Z,7.03
2018-05-24T23:10:53.065Z,7.10
2018-05-24T23:13:20.445Z,6.87
2018-05-24T23:15:47.807Z,7.03
2018-05-24T23:18:15.213Z,7.30
2018-05-24T23:20:42.588Z,7.40
2018-05-24T23:23:09.976Z,6.83
2018-05-24T23:25:37.350Z,7.47
2018-05-24T23:28:05.178Z,7.10
2018-05-24T23:30:32.565Z,7.57
2018-05-24T23:32:59.961Z,7.23
2018-05-24T23:35:27.372Z,7.77
2018-05-24T23:37:54.872Z,6.80
2018-05-24T23:40:22.251Z,7.90
2018-05-24T23:42:49.644Z,8.30
2018-05-24T23:45:17.020Z,8.20
2018-05-24T23:47:44.504Z,7.93
2018-05-24T23:50:11.929Z,7.83
2018-05-24T23:52:39.326Z,7.80
2018-05-24T23:55:06.691Z,8.87
2018-05-24T23:57:34.091Z,8.80
